Exning, United Kingdom
Current Conditions -  °F | °C
As of 5:33 AM on Sunday 26 Oct 2014 (Local Time) from EGUN Reporting Station
Broken Clouds Broken Clouds  
Wind Chill: 54°   Ceiling: 3800
Heat Index: 54°   Visibility: 6mi
Dew Point: 50°   Wind: 14mph
Humidity: 88%   Direction: 210°SSW
Pressure: 30.1"   Gusts: NA
Location:  52.27°N, 0.37°E
Report Text: EGUN 260433Z AUTO 21012KT 9999 BKN038 12/10 A3010 RMK AO2
Loading
Personal Weather Stations






























Interactive Weather Map
Tropical Storm Tracking
New forecast layout! Learn more

10-Day Weather Forecast

Advertisements
Track Severe Weather on mobile